• Join FlightAware (Why Join?)
  • Login
  • US Flag 
06:06AM EDT


 

Airport Tracker/Info


-or-


 

Live Flight TrackerFlight Track Log ✈ SKW4664 ✈ 20-Apr-2013 ✈ KMSP - KATW

Flight Track Log - Related Links

Times and Time Zones

All times are in EDT time to prevent confusion due to time zone crossing. See the SKW4664 flight status page for this flight to view local times or setup timezone preferences in your user account.

Time Position Orientation Groundspeed Altitude Reporting Facility
EDT Latitude Longitude Course Direction KTS MPH feet Rate Location/Type
02:42PM 44.9008 -93.2331 69° East 161 185 1,800  Level FAA TRACON SMA TRACON (SMA)
02:42PM 44.9144 -93.2367 349° North 172 198 2,400 1,920 Climbing FAA TRACON SMA TRACON (SMA)
02:42PM 44.9308 -93.2339 North 183 211 3,100 2,400 Climbing FAA TRACON SMA TRACON (SMA)
02:43PM 44.9533 -93.2300 North 210 242 4,000 2,280 Climbing FAA TRACON SMA TRACON (SMA)
02:43PM 44.9739 -93.2256 North 235 270 4,600 2,280 Climbing FAA TRACON SMA TRACON (SMA)
02:43PM 44.9928 -93.2100 30° Northeast 257 296 5,500 3,000 Climbing FAA TRACON SMA TRACON (SMA)
02:44PM 45.0172 -93.1464 61° Northeast 272 313 7,600 2,880 Climbing FAA TRACON SMA TRACON (SMA)
02:44PM 45.0278 -93.1167 63° Northeast 274 315 8,400 2,400 Climbing FAA TRACON SMA TRACON (SMA)
02:45PM 45.0238 -92.6601 66° East  Level FlightAware Approximate
02:45PM 45.0392 -93.0872 61° Northeast 278 320 9,200  Level FAA TRACON SMA TRACON (SMA)
02:45PM 45.0528 -93.0494 63° Northeast 279 321 10,100 1,860 Climbing FAA TRACON SMA TRACON (SMA)
02:45PM 45.0639 -93.0172 64° Northeast 292 336 10,500 1,560 Climbing FAA TRACON SMA TRACON (SMA)
02:46PM 45.0663 -92.5223 66° East  Level FlightAware Approximate
02:46PM 45.0747 -92.9839 65° Northeast 302 348 11,200  Level FAA TRACON SMA TRACON (SMA)
02:46PM 45.0894 -92.9422 63° Northeast 308 354 12,000 2,220 Climbing FAA TRACON SMA TRACON (SMA)
02:46PM 45.1019 -92.9086 62° Northeast 313 360 12,700 2,400 Climbing FAA TRACON SMA TRACON (SMA)
02:47PM 45.1003 -92.3822 69° East  Level FlightAware Approximate
02:47PM 45.1167 -92.8644 65° Northeast 321 369 13,600  Level FAA TRACON SMA TRACON (SMA)
02:47PM 45.1283 -92.8294 65° Northeast 322 371 14,300 1,800 Climbing FAA TRACON SMA TRACON (SMA)
02:47PM 45.1406 -92.7939 64° Northeast 328 377 14,800 2,100 Climbing FAA TRACON SMA TRACON (SMA)
02:48PM 45.1556 -92.7483 65° Northeast 330 380 15,700 2,100 Climbing FAA TRACON SMA TRACON (SMA)
02:48PM 45.1683 -92.7119 64° Northeast 336 387 16,200 1,320 Climbing FAA TRACON SMA TRACON (SMA)
02:48PM 45.1808 -92.6744 65° Northeast 340 391 16,600 1,620 Climbing FAA TRACON SMA TRACON (SMA)
02:49PM 45.1969 -92.6264 65° Northeast 348 400 17,300 1,800 Climbing FAA TRACON SMA TRACON (SMA)
02:49PM 45.2092 -92.5875 66° East 353 406 17,800 1,020 Climbing FAA TRACON SMA TRACON (SMA)
02:49PM 45.2225 -92.5492 64° Northeast 355 409 18,000 1,380 Climbing FAA TRACON SMA TRACON (SMA)
02:50PM 45.2497 -92.4583 67° East 364 419 19,200 1,860 Climbing FAA TRACON SMA TRACON (SMA)
02:50PM 45.2497 -92.4128 90° East 373 429 19,900 1,680 Climbing FAA TRACON SMA TRACON (SMA)
02:51PM 45.2447 -92.3658 99° East 385 443 20,300 1,620 Climbing FAA TRACON SMA TRACON (SMA)
02:51PM 45.2386 -92.3075 98° East 392 451 21,000 1,500 Climbing FAA TRACON SMA TRACON (SMA)
02:51PM 45.2339 -92.2600 98° East 394 453 21,300 900 Climbing FAA TRACON SMA TRACON (SMA)
02:52PM 45.2261 -92.2125 103° East 397 457 21,600 1,260 Climbing FAA TRACON SMA TRACON (SMA)
02:52PM 45.2150 -92.1531 105° East 406 467 22,200 1,320 Climbing FAA TRACON SMA TRACON (SMA)
02:52PM 45.2053 -92.1042 106° East 410 472 22,500 1,020 Climbing FAA TRACON SMA TRACON (SMA)
02:53PM 45.1983 -92.0561 102° East 411 473 22,900 1,320 Climbing FAA TRACON SMA TRACON (SMA)
02:53PM 45.1872 -91.9953 105° East 415 478 23,400 1,200 Climbing FAA TRACON SMA TRACON (SMA)
02:53PM 45.1786 -91.9458 104° East 418 481 23,700 1,020 Climbing FAA TRACON SMA TRACON (SMA)
02:54PM 45.1694 -91.8961 105° East 423 487 24,100 1,080 Climbing FAA TRACON SMA TRACON (SMA)
02:55PM 45.1214 -91.6903 108° East 425 489 25,500 960 Climbing Minneapolis Center
02:56PM 45.0858 -91.5147 106° East 436 502 26,300 720 Climbing Minneapolis Center
02:57PM 45.0556 -91.3514 105° East 444 511 27,000 300 Climbing Minneapolis Center
02:58PM 45.0208 -91.1708 105° East 454 522 27,000  Level Minneapolis Center
02:59PM 44.9847 -90.9875 106° East 462 532 27,000  Level Minneapolis Center
03:00PM 44.9556 -90.8275 104° East 469 540 27,000  Level Minneapolis Center
03:01PM 44.9208 -90.6492 105° East 473 544 27,000  Level Minneapolis Center
03:02PM 44.8833 -90.4675 106° East 483 556 27,000  Level Minneapolis Center
03:03PM 44.8397 -90.2486 106° East 486 559 27,000 -900 Level Minneapolis Center
03:04PM 44.8039 -90.0692 106° East 489 563 25,200 -2,160 Descending Minneapolis Center
03:05PM 44.7661 -89.8825 106° East 495 570 22,600 -2,580 Descending Minneapolis Center
03:06PM 44.7297 -89.7119 107° East 464 534 20,000 -2,460 Descending Minneapolis Center
03:07PM 44.6958 -89.5408 106° East 433 498 17,600 -2,520 Descending Minneapolis Center
03:08PM 44.6647 -89.3886 106° East 393 452 14,900 -2,340 Descending Minneapolis Center
03:09PM 44.6344 -89.2444 106° East 373 429 12,900 -1,740 Descending Minneapolis Center
03:10PM 44.6050 -89.1092 107° East 376 433 11,400 -1,440 Descending Minneapolis Center
03:11PM 44.5789 -88.9853 106° East 322 371 10,000 -1,620 Descending Minneapolis Center
03:12PM 44.5303 -88.9031 130° Southeast 290 334 8,200 -1,680 Descending Minneapolis Center
03:13PM 44.4622 -88.8492 151° Southeast 281 323 6,700 -1,380 Descending Minneapolis Center
03:14PM 44.3997 -88.7953 148° Southeast 271 312 5,500 -1,200 Descending Minneapolis Center
03:15PM 44.3378 -88.7419 148° Southeast 264 304 4,300 -1,200 Descending Minneapolis Center
03:16PM 44.2733 -88.7111 161° South 254 292 3,100 -660 Descending Minneapolis Center
03:17PM 44.2217 -88.6861 161° South 220 253 3,000 -120 Descending Minneapolis Center
03:18PM 44.1967 -88.6317 123° Southeast 181 208 2,900 -120 Descending Minneapolis Center